createdAt,value
2019-03-13T00:02:30.564Z,1.70
2019-03-13T00:04:59.057Z,1.80
2019-03-13T00:07:27.355Z,2.00
2019-03-13T00:09:57.034Z,1.80
2019-03-13T00:12:25.220Z,1.60
2019-03-13T00:14:53.514Z,1.30
2019-03-13T00:17:21.722Z,0.97
2019-03-13T00:19:51.500Z,0.53
2019-03-13T00:22:19.571Z,0.60
2019-03-13T00:24:47.847Z,0.53
2019-03-13T00:27:16.160Z,0.50
2019-03-13T00:29:44.268Z,0.60
2019-03-13T00:32:13.580Z,0.60
2019-03-13T00:34:41.719Z,0.53
2019-03-13T00:37:09.918Z,0.60
2019-03-13T00:39:38.107Z,0.70
2019-03-13T00:42:06.316Z,0.70
2019-03-13T00:44:34.575Z,0.73
2019-03-13T00:47:02.738Z,1.10
2019-03-13T00:49:30.800Z,1.13
2019-03-13T00:51:58.921Z,1.10
2019-03-13T00:54:27.055Z,1.03
2019-03-13T00:56:55.081Z,1.20
2019-03-13T00:59:23.190Z,1.33
2019-03-13T01:02:12.785Z,1.30
2019-03-13T01:04:52.121Z,0.83
2019-03-13T01:07:20.418Z,1.10
2019-03-13T01:09:48.607Z,1.23
2019-03-13T01:12:16.707Z,1.10
2019-03-13T01:14:44.770Z,1.40
2019-03-13T01:17:13.075Z,1.53
2019-03-13T01:19:41.146Z,1.60
2019-03-13T01:22:09.209Z,1.37
2019-03-13T01:24:37.295Z,1.70
2019-03-13T01:27:05.350Z,1.73
2019-03-13T01:29:33.450Z,1.77
2019-03-13T01:32:08.410Z,1.63
2019-03-13T01:34:44.859Z,2.10
2019-03-13T01:39:42.120Z,2.03
2019-03-13T01:42:13.392Z,1.80
2019-03-13T01:44:41.548Z,1.60
2019-03-13T01:47:09.559Z,1.70
2019-03-13T01:49:37.630Z,2.10
2019-03-13T01:52:05.687Z,2.20
2019-03-13T01:54:33.734Z,2.10
2019-03-13T01:57:01.791Z,1.93
2019-03-13T01:59:29.858Z,1.83
2019-03-13T02:01:58.973Z,1.70
2019-03-13T02:04:27.052Z,1.80
2019-03-13T02:06:55.147Z,2.00
2019-03-13T02:09:23.191Z,1.80
2019-03-13T02:11:51.263Z,2.27
2019-03-13T02:14:19.306Z,1.80
2019-03-13T02:16:47.331Z,1.97
2019-03-13T02:19:15.381Z,2.10
2019-03-13T02:21:43.438Z,2.30
2019-03-13T02:24:11.511Z,2.20
2019-03-13T02:26:39.582Z,2.00
2019-03-13T02:29:07.582Z,1.83
2019-03-13T02:31:35.673Z,2.27
2019-03-13T02:34:03.715Z,2.70
2019-03-13T02:36:31.759Z,2.30
2019-03-13T02:38:59.781Z,2.90
2019-03-13T02:41:27.811Z,2.07
2019-03-13T02:43:55.838Z,2.27
2019-03-13T02:46:23.908Z,2.23
2019-03-13T02:48:51.968Z,1.77
2019-03-13T02:51:20.050Z,2.63
2019-03-13T02:53:48.298Z,2.00
2019-03-13T02:56:16.351Z,2.07
2019-03-13T02:58:44.410Z,2.30
2019-03-13T03:01:31.480Z,2.37
2019-03-13T03:04:01.602Z,1.77
2019-03-13T03:06:30.010Z,2.23
2019-03-13T03:08:58.072Z,2.27
2019-03-13T03:11:26.119Z,2.10
2019-03-13T03:17:03.571Z,2.10
2019-03-13T03:22:53.307Z,2.43
2019-03-13T03:25:21.323Z,2.47
2019-03-13T03:27:49.394Z,2.83
2019-03-13T03:33:39.364Z,2.50
2019-03-13T03:36:07.452Z,2.33
2019-03-13T03:38:35.538Z,2.40
2019-03-13T03:41:03.888Z,2.60
2019-03-13T03:43:40.435Z,3.60
2019-03-13T03:46:01.800Z,2.67
2019-03-13T03:48:29.897Z,2.33
2019-03-13T03:50:57.979Z,2.50
2019-03-13T03:53:26.051Z,2.70
2019-03-13T03:55:54.116Z,2.70
2019-03-13T03:58:22.155Z,2.33
2019-03-13T04:00:50.191Z,2.60
2019-03-13T04:03:18.274Z,3.00
2019-03-13T04:05:46.314Z,2.77
2019-03-13T04:08:15.424Z,2.67
2019-03-13T04:10:43.454Z,3.00
2019-03-13T04:13:11.510Z,2.93
2019-03-13T04:15:39.647Z,3.53
2019-03-13T04:18:08.669Z,2.50
2019-03-13T04:20:36.715Z,3.33
2019-03-13T04:23:04.771Z,3.17
2019-03-13T04:25:33.875Z,3.07
2019-03-13T04:28:01.967Z,3.17
2019-03-13T04:30:30.010Z,2.80
2019-03-13T04:32:59.844Z,3.47
2019-03-13T04:35:27.926Z,3.57
2019-03-13T04:37:55.990Z,3.07
2019-03-13T04:40:24.064Z,3.20
2019-03-13T04:42:52.163Z,3.60
2019-03-13T04:45:20.264Z,3.70
2019-03-13T04:47:48.346Z,3.13
2019-03-13T04:50:16.424Z,3.00
2019-03-13T04:52:44.490Z,3.93
2019-03-13T04:55:12.562Z,3.30
2019-03-13T04:57:40.622Z,3.83
2019-03-13T05:00:09.150Z,3.80
2019-03-13T05:02:37.202Z,3.60
2019-03-13T05:05:05.302Z,3.53
2019-03-13T05:07:33.454Z,3.60
2019-03-13T05:10:01.544Z,3.70
2019-03-13T05:12:29.586Z,3.67
2019-03-13T05:14:57.619Z,3.30
2019-03-13T05:17:25.662Z,4.20
2019-03-13T05:19:53.744Z,3.70
2019-03-13T05:22:21.784Z,3.13
2019-03-13T05:24:49.857Z,2.97
2019-03-13T05:27:17.890Z,3.73
2019-03-13T05:29:46.001Z,3.30
2019-03-13T05:32:14.029Z,3.60
2019-03-13T05:34:42.108Z,4.10
2019-03-13T05:37:10.166Z,3.53
2019-03-13T05:39:38.221Z,3.67
2019-03-13T05:42:06.284Z,3.67
2019-03-13T05:44:34.362Z,5.17
2019-03-13T05:47:02.424Z,3.53
2019-03-13T05:49:30.521Z,4.23
2019-03-13T05:51:58.631Z,4.33
2019-03-13T05:54:26.710Z,3.50
2019-03-13T05:56:54.789Z,4.07
2019-03-13T05:59:22.857Z,4.23
2019-03-13T06:01:50.927Z,4.70
2019-03-13T06:04:18.930Z,4.63
2019-03-13T06:06:46.987Z,5.00
2019-03-13T06:09:15.071Z,4.20
2019-03-13T06:11:43.114Z,4.57
2019-03-13T06:14:11.115Z,4.30
2019-03-13T06:16:39.165Z,5.10
2019-03-13T06:19:07.210Z,4.57
2019-03-13T06:21:35.407Z,4.70
2019-03-13T06:24:03.452Z,4.80
2019-03-13T06:26:31.521Z,4.93
2019-03-13T06:28:59.550Z,5.10
2019-03-13T06:31:27.596Z,4.43
2019-03-13T06:33:55.663Z,5.00
2019-03-13T06:36:23.824Z,5.20
2019-03-13T06:38:51.838Z,4.57
2019-03-13T06:41:19.895Z,5.13
2019-03-13T06:43:47.972Z,5.73
2019-03-13T06:46:16.035Z,4.43
2019-03-13T06:48:44.273Z,4.57
2019-03-13T06:51:12.371Z,4.50
2019-03-13T06:53:40.393Z,4.40
2019-03-13T06:56:08.463Z,4.63
2019-03-13T06:58:58.165Z,5.07
2019-03-13T07:01:41.940Z,4.73
2019-03-13T07:04:35.492Z,4.47
2019-03-13T07:07:28.636Z,4.10
2019-03-13T07:10:11.313Z,3.60
2019-03-13T07:13:07.683Z,4.10
2019-03-13T07:15:49.853Z,4.10
2019-03-13T07:18:39.703Z,4.00
2019-03-13T07:21:29.602Z,4.47
2019-03-13T07:24:19.853Z,4.10
2019-03-13T07:27:10.115Z,3.30
2019-03-13T07:29:54.097Z,3.90
2019-03-13T07:32:56.500Z,4.53
2019-03-13T07:35:54.535Z,3.70
2019-03-13T07:38:41.587Z,3.97
2019-03-13T07:41:40.686Z,4.03
2019-03-13T07:44:27.737Z,3.80
2019-03-13T07:47:06.054Z,3.27
2019-03-13T07:49:59.158Z,4.30
2019-03-13T07:52:55.855Z,4.00
2019-03-13T07:55:41.567Z,4.67
2019-03-13T07:58:34.705Z,3.80
2019-03-13T08:01:27.815Z,4.70
2019-03-13T08:04:17.989Z,4.63
2019-03-13T08:07:02.607Z,4.00
2019-03-13T08:09:49.693Z,3.57
2019-03-13T08:12:53.507Z,4.40
2019-03-13T08:15:43.640Z,3.87
2019-03-13T08:18:48.514Z,3.60
2019-03-13T08:21:53.987Z,3.90
2019-03-13T08:24:41.145Z,3.73
2019-03-13T08:27:20.827Z,3.63
2019-03-13T08:30:23.351Z,4.27
2019-03-13T08:33:01.037Z,3.60
2019-03-13T08:35:51.176Z,4.83
2019-03-13T08:38:36.317Z,3.10
2019-03-13T08:41:23.509Z,3.90
2019-03-13T08:44:22.733Z,3.53
2019-03-13T08:47:09.801Z,4.70
2019-03-13T08:49:54.286Z,4.20
2019-03-13T08:52:50.344Z,4.37
2019-03-13T08:55:43.582Z,4.20
2019-03-13T08:58:24.667Z,3.83
2019-03-13T09:01:23.829Z,4.13
2019-03-13T09:04:09.712Z,3.97
2019-03-13T09:06:59.569Z,3.40
2019-03-13T09:09:45.343Z,3.70
2019-03-13T09:12:20.557Z,4.20
2019-03-13T09:15:23.018Z,3.70
2019-03-13T09:18:10.083Z,4.00
2019-03-13T09:21:06.328Z,4.40
2019-03-13T09:23:49.438Z,3.63
2019-03-13T09:26:39.603Z,4.57
2019-03-13T09:29:19.473Z,3.83
2019-03-13T09:32:15.936Z,3.40
2019-03-13T09:35:00.395Z,3.73
2019-03-13T09:37:50.194Z,3.20
2019-03-13T09:40:37.259Z,3.53
2019-03-13T09:43:23.002Z,4.43
2019-03-13T09:46:06.467Z,3.37
2019-03-13T09:48:56.569Z,2.87
2019-03-13T09:51:46.377Z,3.60
2019-03-13T09:54:33.496Z,3.53
2019-03-13T09:57:26.198Z,3.33
2019-03-13T10:00:12.060Z,3.43
2019-03-13T10:03:02.504Z,3.60
2019-03-13T10:05:52.372Z,3.80
2019-03-13T10:08:42.262Z,3.50
2019-03-13T10:11:41.710Z,3.47
2019-03-13T10:14:26.683Z,3.53
2019-03-13T10:17:19.015Z,4.33
2019-03-13T10:20:08.868Z,3.40
2019-03-13T10:22:46.499Z,3.60
2019-03-13T10:25:39.562Z,2.77
2019-03-13T10:28:14.991Z,3.77
2019-03-13T10:31:10.900Z,3.50
2019-03-13T10:33:52.268Z,3.60
2019-03-13T10:36:57.248Z,3.10
2019-03-13T10:39:37.632Z,3.30
2019-03-13T10:42:23.258Z,2.63
2019-03-13T10:45:10.358Z,3.70
2019-03-13T10:48:00.252Z,3.53
2019-03-13T10:50:47.307Z,3.63
2019-03-13T10:53:43.748Z,3.77
2019-03-13T10:56:39.807Z,3.63
2019-03-13T10:59:28.605Z,3.73
2019-03-13T11:05:23.824Z,3.50
2019-03-13T11:08:23.054Z,3.90
2019-03-13T11:10:59.185Z,4.60
2019-03-13T11:13:44.085Z,3.70
2019-03-13T11:16:40.456Z,4.07
2019-03-13T11:19:33.342Z,4.13
2019-03-13T11:22:20.380Z,3.70
2019-03-13T11:25:10.458Z,3.70
2019-03-13T11:27:56.031Z,3.70
2019-03-13T11:30:50.680Z,3.57
2019-03-13T11:33:36.581Z,4.27
2019-03-13T11:36:19.996Z,3.70
2019-03-13T11:39:12.592Z,3.70
2019-03-13T11:41:58.249Z,4.27
2019-03-13T11:45:00.393Z,3.73
2019-03-13T11:47:46.155Z,3.80
2019-03-13T11:50:33.440Z,4.63
2019-03-13T11:53:07.180Z,3.70
2019-03-13T11:56:12.342Z,3.57
2019-03-13T11:58:58.214Z,4.10
2019-03-13T12:01:50.963Z,4.03
2019-03-13T12:04:29.678Z,4.43
2019-03-13T12:07:16.739Z,3.97
2019-03-13T12:09:52.547Z,4.47
2019-03-13T12:12:45.428Z,4.30
2019-03-13T12:15:27.929Z,4.03
2019-03-13T12:18:10.931Z,4.33
2019-03-13T12:20:52.021Z,3.83
2019-03-13T12:23:41.725Z,3.47
2019-03-13T12:26:17.890Z,3.50
2019-03-13T12:29:04.977Z,3.00
2019-03-13T12:31:57.893Z,3.50
2019-03-13T12:34:53.788Z,3.80
2019-03-13T12:37:31.986Z,3.60
2019-03-13T12:40:17.169Z,2.77
2019-03-13T12:43:02.966Z,3.50
2019-03-13T12:46:05.401Z,2.80
2019-03-13T12:48:52.506Z,2.50
2019-03-13T12:51:39.591Z,2.60
2019-03-13T12:54:17.039Z,2.60
2019-03-13T12:57:13.087Z,2.67
2019-03-13T13:00:00.371Z,2.53
2019-03-13T13:02:47.496Z,3.07
2019-03-13T13:05:46.739Z,2.20
2019-03-13T13:08:36.837Z,2.50
2019-03-13T13:11:33.214Z,2.47
2019-03-13T13:14:11.950Z,2.47
2019-03-13T13:17:01.764Z,2.43
2019-03-13T13:19:29.783Z,1.87
2019-03-13T13:21:58.456Z,2.10
2019-03-13T13:24:26.522Z,2.80
2019-03-13T13:26:54.582Z,2.70
2019-03-13T13:29:22.715Z,2.27
2019-03-13T13:31:50.861Z,2.10
2019-03-13T13:34:18.908Z,2.53
2019-03-13T13:36:46.977Z,2.13
2019-03-13T13:39:15.044Z,2.30
2019-03-13T13:45:05.806Z,1.90
2019-03-13T13:47:33.903Z,2.23
2019-03-13T13:50:01.961Z,2.40
2019-03-13T13:52:30.000Z,2.40
2019-03-13T13:54:58.062Z,2.07
2019-03-13T13:57:26.205Z,1.77
2019-03-13T13:59:54.259Z,1.93
2019-03-13T14:02:22.323Z,2.67
2019-03-13T14:04:50.513Z,2.17
2019-03-13T14:07:18.587Z,1.77
2019-03-13T14:09:46.653Z,2.17
2019-03-13T14:12:16.198Z,1.90
2019-03-13T14:14:44.265Z,1.70
2019-03-13T14:17:12.341Z,1.60
2019-03-13T14:19:40.416Z,1.67
2019-03-13T14:22:08.557Z,2.23
2019-03-13T14:24:37.922Z,1.90
2019-03-13T14:27:14.485Z,1.63
2019-03-13T14:29:35.676Z,1.63
2019-03-13T14:32:03.763Z,1.50
2019-03-13T14:34:31.812Z,1.20
2019-03-13T14:36:59.883Z,1.20
2019-03-13T14:39:28.128Z,1.63
2019-03-13T14:41:56.236Z,1.80
2019-03-13T14:44:24.306Z,1.77
2019-03-13T14:46:52.351Z,1.40
2019-03-13T14:49:20.421Z,1.53
2019-03-13T14:51:48.520Z,1.13
2019-03-13T14:54:16.747Z,1.33
2019-03-13T14:56:44.809Z,1.60
2019-03-13T14:59:12.878Z,2.57
2019-03-13T15:01:40.967Z,1.47
2019-03-13T15:04:11.243Z,1.60
2019-03-13T15:06:39.302Z,1.27
2019-03-13T15:09:07.455Z,1.70
2019-03-13T15:11:35.549Z,1.30
2019-03-13T15:14:03.604Z,1.73
2019-03-13T15:16:31.667Z,1.70
2019-03-13T15:18:59.778Z,1.80
2019-03-13T15:21:27.815Z,1.60
2019-03-13T15:23:55.857Z,1.97
2019-03-13T15:26:24.427Z,1.40
2019-03-13T15:28:52.860Z,1.80
2019-03-13T15:31:20.954Z,2.23
2019-03-13T15:33:49.035Z,1.80
2019-03-13T15:36:17.062Z,1.63
2019-03-13T15:38:45.321Z,1.90
2019-03-13T15:41:13.343Z,1.60
2019-03-13T15:43:41.450Z,1.90
2019-03-13T15:46:09.455Z,2.47
2019-03-13T15:48:37.526Z,1.70
2019-03-13T15:51:05.564Z,2.13
2019-03-13T15:53:33.648Z,1.43
2019-03-13T15:56:01.726Z,1.70
2019-03-13T15:58:29.770Z,1.40
2019-03-13T16:00:57.841Z,1.90
2019-03-13T16:03:25.942Z,1.60
2019-03-13T16:05:54.017Z,1.33
2019-03-13T16:08:22.081Z,1.63
2019-03-13T16:10:50.106Z,2.03
2019-03-13T16:13:18.195Z,1.80
2019-03-13T16:15:46.457Z,1.97
2019-03-13T16:18:14.582Z,2.20
2019-03-13T16:20:42.807Z,2.07
2019-03-13T16:23:10.950Z,1.90
2019-03-13T16:25:39.123Z,1.90
2019-03-13T16:28:07.214Z,2.27
2019-03-13T16:30:38.187Z,2.00
2019-03-13T16:33:06.261Z,1.53
2019-03-13T16:35:34.420Z,1.50
2019-03-13T16:38:02.608Z,2.27
2019-03-13T16:40:32.011Z,1.77
2019-03-13T16:43:00.166Z,2.00
2019-03-13T16:45:28.322Z,2.23
2019-03-13T16:47:56.434Z,1.73
2019-03-13T16:50:24.935Z,1.60
2019-03-13T16:52:53.040Z,1.40
2019-03-13T16:55:21.147Z,1.90
2019-03-13T16:57:49.283Z,1.30
2019-03-13T17:00:18.786Z,1.17
2019-03-13T17:02:46.805Z,1.50
2019-03-13T17:05:14.954Z,1.60
2019-03-13T17:07:43.076Z,1.50
2019-03-13T17:10:11.690Z,1.70
2019-03-13T17:12:39.792Z,1.33
2019-03-13T17:15:09.151Z,1.13
2019-03-13T17:17:37.270Z,1.60
2019-03-13T17:20:06.146Z,1.40
2019-03-13T17:22:34.311Z,1.40
2019-03-13T17:25:02.439Z,1.67
2019-03-13T17:27:30.667Z,1.93
2019-03-13T17:29:58.758Z,1.87
2019-03-13T17:32:26.830Z,1.73
2019-03-13T17:34:54.883Z,2.27
2019-03-13T17:37:22.954Z,2.00
2019-03-13T17:39:51.263Z,2.10
2019-03-13T17:42:19.347Z,2.40
2019-03-13T17:44:47.553Z,2.87
2019-03-13T17:47:15.611Z,1.93
2019-03-13T17:49:43.700Z,2.77
2019-03-13T17:52:11.758Z,2.70
2019-03-13T17:54:39.834Z,2.83
2019-03-13T17:57:08.114Z,2.53
2019-03-13T17:59:36.169Z,2.30
2019-03-13T18:02:04.311Z,3.87
2019-03-13T18:04:32.398Z,2.07
2019-03-13T18:07:00.658Z,2.20
2019-03-13T18:09:28.788Z,1.93
2019-03-13T18:11:57.298Z,2.20
2019-03-13T18:14:29.385Z,2.30
2019-03-13T18:16:55.518Z,2.37
2019-03-13T18:19:23.598Z,2.23
2019-03-13T18:21:51.689Z,2.73
2019-03-13T18:24:19.747Z,2.40
2019-03-13T18:26:47.836Z,3.07
2019-03-13T18:29:15.987Z,2.70
2019-03-13T18:31:44.058Z,2.40
2019-03-13T18:34:12.136Z,2.63
2019-03-13T18:36:48.557Z,2.27
2019-03-13T18:39:16.595Z,2.80
2019-03-13T18:41:44.773Z,2.90
2019-03-13T18:44:12.845Z,2.93
2019-03-13T18:46:40.968Z,3.07
2019-03-13T18:49:09.018Z,3.30
2019-03-13T18:51:37.093Z,3.20
2019-03-13T18:54:05.170Z,2.87
2019-03-13T18:56:33.247Z,2.83
2019-03-13T18:59:01.321Z,3.20
2019-03-13T19:01:29.417Z,2.67
2019-03-13T19:03:57.470Z,2.73
2019-03-13T19:06:25.538Z,2.53
2019-03-13T19:08:53.615Z,2.70
2019-03-13T19:11:21.742Z,2.87
2019-03-13T19:13:50.099Z,2.00
2019-03-13T19:16:18.196Z,2.60
2019-03-13T19:18:46.333Z,2.60
2019-03-13T19:21:14.446Z,2.20
2019-03-13T19:23:42.624Z,1.87
2019-03-13T19:26:10.714Z,2.23
2019-03-13T19:28:38.801Z,2.30
2019-03-13T19:31:06.877Z,2.53
2019-03-13T19:33:34.937Z,2.77
2019-03-13T19:36:03.017Z,2.80
2019-03-13T19:38:31.210Z,3.00
2019-03-13T19:40:59.361Z,2.87
2019-03-13T19:43:27.687Z,2.43
2019-03-13T19:45:55.789Z,1.80
2019-03-13T19:48:23.904Z,2.20
2019-03-13T19:50:53.083Z,3.00
2019-03-13T19:53:21.248Z,4.10
2019-03-13T19:55:49.372Z,3.57
2019-03-13T19:58:17.549Z,3.70
2019-03-13T20:00:45.647Z,2.23
2019-03-13T20:03:13.822Z,1.60
2019-03-13T20:05:45.978Z,1.70
2019-03-13T20:08:13.699Z,1.80
2019-03-13T20:10:45.333Z,3.47
2019-03-13T20:13:13.571Z,3.00
2019-03-13T20:15:42.765Z,3.20
2019-03-13T20:18:10.994Z,3.50
2019-03-13T20:20:39.503Z,2.87
2019-03-13T20:23:07.736Z,2.47
2019-03-13T20:25:35.850Z,2.53
2019-03-13T20:28:04.196Z,1.80
2019-03-13T20:30:32.422Z,2.20
2019-03-13T20:33:00.648Z,3.10
2019-03-13T20:35:30.066Z,3.17
2019-03-13T20:37:58.415Z,2.80
2019-03-13T20:40:27.530Z,3.87
2019-03-13T20:42:56.085Z,4.43
2019-03-13T20:45:25.145Z,4.03
2019-03-13T20:47:53.954Z,3.00
2019-03-13T20:50:35.258Z,3.10
2019-03-13T20:52:53.176Z,3.20
2019-03-13T20:55:21.505Z,4.23
2019-03-13T20:57:50.084Z,3.80
2019-03-13T21:00:20.385Z,2.67
2019-03-13T21:02:49.012Z,2.70
2019-03-13T21:05:17.511Z,3.17
2019-03-13T21:07:45.742Z,3.57
2019-03-13T21:10:20.469Z,3.43
2019-03-13T21:12:44.182Z,2.77
2019-03-13T21:15:12.343Z,2.77
2019-03-13T21:17:40.538Z,2.97
2019-03-13T21:20:09.772Z,2.53
2019-03-13T21:22:38.483Z,2.33
2019-03-13T21:25:07.792Z,2.30
2019-03-13T21:27:36.464Z,3.10
2019-03-13T21:30:08.155Z,3.33
2019-03-13T21:32:36.494Z,3.00
2019-03-13T21:35:05.005Z,3.47
2019-03-13T21:37:33.607Z,2.97
2019-03-13T21:40:02.612Z,3.17
2019-03-13T21:42:31.749Z,3.87
2019-03-13T21:44:59.859Z,3.97
2019-03-13T21:47:27.961Z,3.27
2019-03-13T21:49:56.389Z,3.13
2019-03-13T21:52:24.701Z,3.83
2019-03-13T21:54:53.074Z,4.27
2019-03-13T21:57:21.109Z,3.60
2019-03-13T21:59:49.759Z,3.33
2019-03-13T22:02:18.203Z,2.83
2019-03-13T22:04:46.883Z,2.97
2019-03-13T22:07:17.015Z,3.20
2019-03-13T22:09:45.113Z,2.87
2019-03-13T22:12:13.470Z,3.03
2019-03-13T22:14:41.539Z,2.97
2019-03-13T22:17:20.996Z,2.70
2019-03-13T22:19:49.116Z,2.73
2019-03-13T22:22:17.254Z,3.47
2019-03-13T22:24:45.445Z,2.63
2019-03-13T22:27:14.896Z,3.23
2019-03-13T22:29:43.394Z,2.53
2019-03-13T22:32:11.450Z,2.50
2019-03-13T22:34:39.563Z,3.03
2019-03-13T22:37:07.612Z,2.50
2019-03-13T22:39:35.769Z,2.37
2019-03-13T22:42:03.848Z,2.13
2019-03-13T22:44:31.990Z,2.70
2019-03-13T22:47:00.138Z,2.50
2019-03-13T22:49:28.176Z,2.47
2019-03-13T22:52:20.274Z,2.80
2019-03-13T22:54:48.418Z,2.47
2019-03-13T22:57:17.646Z,2.20
2019-03-13T22:59:45.794Z,3.50
2019-03-13T23:02:14.261Z,2.80
2019-03-13T23:04:42.617Z,2.90
2019-03-13T23:07:10.717Z,3.20
2019-03-13T23:09:38.787Z,3.30
2019-03-13T23:12:06.866Z,3.33
2019-03-13T23:14:34.965Z,3.07
2019-03-13T23:17:03.038Z,3.93
2019-03-13T23:19:31.175Z,4.60
2019-03-13T23:21:59.252Z,3.70
2019-03-13T23:24:27.392Z,4.67
2019-03-13T23:26:55.439Z,4.73
2019-03-13T23:29:23.577Z,4.33
2019-03-13T23:31:51.626Z,3.90
2019-03-13T23:34:19.763Z,5.20
2019-03-13T23:36:48.080Z,4.27
2019-03-13T23:39:16.227Z,4.20
2019-03-13T23:41:44.551Z,4.83
2019-03-13T23:44:12.635Z,3.97
2019-03-13T23:46:40.700Z,3.90
2019-03-13T23:49:08.771Z,5.10
2019-03-13T23:51:36.872Z,4.10
2019-03-13T23:54:04.906Z,4.83
2019-03-13T23:56:33.125Z,4.77
2019-03-13T23:59:01.157Z,5.30
